sensor_id;sensor_type;location;lat;lon;timestamp;pressure;altitude;pressure_sealevel;temperature;humidity
76553;BME280;65395;53.168;18.156;2024-03-23T00:52:13;100146.17;;;7.74;90.37
76553;BME280;65395;53.168;18.156;2024-03-23T00:54:39;100147.20;;;7.72;90.29
76553;BME280;65395;53.168;18.156;2024-03-23T00:57:06;100142.63;;;7.71;90.29
76553;BME280;65395;53.168;18.156;2024-03-23T00:59:33;100137.04;;;7.68;90.12
76553;BME280;65395;53.168;18.156;2024-03-23T01:02:00;100140.11;;;7.66;90.14
76553;BME280;65395;53.168;18.156;2024-03-23T01:04:27;100138.88;;;7.64;90.13
76553;BME280;65395;53.168;18.156;2024-03-23T01:06:53;100139.19;;;7.64;90.24
76553;BME280;65395;53.168;18.156;2024-03-23T01:09:20;100142.96;;;7.63;90.19
76553;BME280;65395;53.168;18.156;2024-03-23T01:11:47;100139.41;;;7.62;90.19
76553;BME280;65395;53.168;18.156;2024-03-23T01:14:14;100139.47;;;7.62;90.25
76553;BME280;65395;53.168;18.156;2024-03-23T01:16:40;100141.46;;;7.62;90.19
76553;BME280;65395;53.168;18.156;2024-03-23T01:19:07;100142.73;;;7.59;90.11
76553;BME280;65395;53.168;18.156;2024-03-23T01:21:34;100147.20;;;7.60;90.16
76553;BME280;65395;53.168;18.156;2024-03-23T01:24:01;100144.94;;;7.61;90.19
76553;BME280;65395;53.168;18.156;2024-03-23T01:26:28;100147.08;;;7.61;90.22
76553;BME280;65395;53.168;18.156;2024-03-23T01:28:55;100151.46;;;7.63;90.19
76553;BME280;65395;53.168;18.156;2024-03-23T01:31:22;100149.77;;;7.64;90.25
76553;BME280;65395;53.168;18.156;2024-03-23T01:33:48;100144.88;;;7.62;90.07
76553;BME280;65395;53.168;18.156;2024-03-23T01:36:15;100141.21;;;7.60;90.13
76553;BME280;65395;53.168;18.156;2024-03-23T01:38:42;100138.91;;;7.60;90.18
76553;BME280;65395;53.168;18.156;2024-03-23T01:41:09;100135.48;;;7.62;90.18
76553;BME280;65395;53.168;18.156;2024-03-23T01:43:35;100134.20;;;7.64;90.40
76553;BME280;65395;53.168;18.156;2024-03-23T01:46:02;100131.21;;;7.65;90.47
76553;BME280;65395;53.168;18.156;2024-03-23T01:48:29;100130.66;;;7.66;90.57
76553;BME280;65395;53.168;18.156;2024-03-23T01:50:56;100134.17;;;7.67;90.53
76553;BME280;65395;53.168;18.156;2024-03-23T01:53:23;100131.60;;;7.67;90.59
76553;BME280;65395;53.168;18.156;2024-03-23T01:55:50;100128.98;;;7.68;90.44
76553;BME280;65395;53.168;18.156;2024-03-23T01:58:18;100131.16;;;7.69;90.38
76553;BME280;65395;53.168;18.156;2024-03-23T02:00:44;100134.14;;;7.70;90.38
76553;BME280;65395;53.168;18.156;2024-03-23T02:03:21;100132.04;;;7.70;90.22
76553;BME280;65395;53.168;18.156;2024-03-23T02:05:48;100131.00;;;7.69;90.22
76553;BME280;65395;53.168;18.156;2024-03-23T02:08:17;100130.16;;;7.69;90.24
76553;BME280;65395;53.168;18.156;2024-03-23T02:10:44;100128.16;;;7.70;90.25
76553;BME280;65395;53.168;18.156;2024-03-23T02:13:11;100128.77;;;7.71;90.26
76553;BME280;65395;53.168;18.156;2024-03-23T02:15:39;100124.66;;;7.68;90.17
76553;BME280;65395;53.168;18.156;2024-03-23T02:18:07;100116.92;;;7.67;90.24
76553;BME280;65395;53.168;18.156;2024-03-23T02:20:36;100117.48;;;7.68;90.39
76553;BME280;65395;53.168;18.156;2024-03-23T02:23:05;100117.67;;;7.69;90.39
76553;BME280;65395;53.168;18.156;2024-03-23T02:25:32;100116.13;;;7.70;90.38
76553;BME280;65395;53.168;18.156;2024-03-23T02:28:00;100114.29;;;7.72;90.49
76553;BME280;65395;53.168;18.156;2024-03-23T02:30:27;100110.88;;;7.71;90.36
76553;BME280;65395;53.168;18.156;2024-03-23T02:32:54;100109.73;;;7.71;90.14
76553;BME280;65395;53.168;18.156;2024-03-23T02:35:21;100102.13;;;7.70;89.95
76553;BME280;65395;53.168;18.156;2024-03-23T02:37:47;100100.60;;;7.71;90.05
76553;BME280;65395;53.168;18.156;2024-03-23T02:40:16;100101.76;;;7.72;89.99
76553;BME280;65395;53.168;18.156;2024-03-23T02:42:43;100095.02;;;7.72;90.01
76553;BME280;65395;53.168;18.156;2024-03-23T02:45:10;100092.11;;;7.70;90.17
76553;BME280;65395;53.168;18.156;2024-03-23T02:47:36;100086.77;;;7.70;90.38
76553;BME280;65395;53.168;18.156;2024-03-23T02:50:04;100087.65;;;7.70;90.66
76553;BME280;65395;53.168;18.156;2024-03-23T02:52:30;100085.50;;;7.70;90.79
76553;BME280;65395;53.168;18.156;2024-03-23T02:54:57;100086.29;;;7.71;90.78
76553;BME280;65395;53.168;18.156;2024-03-23T02:57:24;100078.36;;;7.70;90.85
76553;BME280;65395;53.168;18.156;2024-03-23T02:59:51;100074.65;;;7.69;90.96
76553;BME280;65395;53.168;18.156;2024-03-23T03:02:18;100073.05;;;7.67;90.95
76553;BME280;65395;53.168;18.156;2024-03-23T03:04:45;100065.45;;;7.67;91.15
76553;BME280;65395;53.168;18.156;2024-03-23T03:07:11;100060.27;;;7.67;91.27
76553;BME280;65395;53.168;18.156;2024-03-23T03:09:38;100055.53;;;7.66;91.19
76553;BME280;65395;53.168;18.156;2024-03-23T03:12:06;100050.42;;;7.64;91.24
76553;BME280;65395;53.168;18.156;2024-03-23T03:14:34;100041.61;;;7.64;91.32
76553;BME280;65395;53.168;18.156;2024-03-23T03:17:01;100043.67;;;7.63;91.39
76553;BME280;65395;53.168;18.156;2024-03-23T03:19:27;100048.82;;;7.63;91.24
76553;BME280;65395;53.168;18.156;2024-03-23T03:21:54;100049.57;;;7.60;91.29
76553;BME280;65395;53.168;18.156;2024-03-23T03:24:21;100042.83;;;7.58;91.19
76553;BME280;65395;53.168;18.156;2024-03-23T03:26:48;100036.90;;;7.58;91.41
76553;BME280;65395;53.168;18.156;2024-03-23T03:29:16;100037.05;;;7.59;91.51
76553;BME280;65395;53.168;18.156;2024-03-23T03:31:43;100037.26;;;7.60;91.42
76553;BME280;65395;53.168;18.156;2024-03-23T03:34:10;100034.23;;;7.59;91.36
76553;BME280;65395;53.168;18.156;2024-03-23T03:36:37;100033.70;;;7.59;91.40
76553;BME280;65395;53.168;18.156;2024-03-23T03:39:04;100033.79;;;7.59;91.52
76553;BME280;65395;53.168;18.156;2024-03-23T03:41:31;100030.86;;;7.59;91.42
76553;BME280;65395;53.168;18.156;2024-03-23T03:43:58;100029.38;;;7.61;91.56
76553;BME280;65395;53.168;18.156;2024-03-23T03:46:28;100026.85;;;7.61;91.51
76553;BME280;65395;53.168;18.156;2024-03-23T03:48:55;100028.33;;;7.60;91.32
76553;BME280;65395;53.168;18.156;2024-03-23T03:51:22;100031.39;;;7.58;91.33
76553;BME280;65395;53.168;18.156;2024-03-23T03:53:49;100029.44;;;7.54;91.27
76553;BME280;65395;53.168;18.156;2024-03-23T03:56:15;100031.41;;;7.52;91.36
76553;BME280;65395;53.168;18.156;2024-03-23T03:58:43;100030.85;;;7.51;91.55
76553;BME280;65395;53.168;18.156;2024-03-23T04:01:09;100032.54;;;7.50;91.46
76553;BME280;65395;53.168;18.156;2024-03-23T04:03:36;100028.59;;;7.51;91.65
76553;BME280;65395;53.168;18.156;2024-03-23T04:06:03;100026.71;;;7.49;91.40
76553;BME280;65395;53.168;18.156;2024-03-23T04:08:30;100026.36;;;7.49;91.44
76553;BME280;65395;53.168;18.156;2024-03-23T04:10:57;100025.77;;;7.50;91.61
76553;BME280;65395;53.168;18.156;2024-03-23T04:13:23;100031.05;;;7.51;91.55
76553;BME280;65395;53.168;18.156;2024-03-23T04:15:54;100029.71;;;7.50;91.61
76553;BME280;65395;53.168;18.156;2024-03-23T04:18:21;100029.93;;;7.48;91.54
76553;BME280;65395;53.168;18.156;2024-03-23T04:20:48;100021.91;;;7.47;91.50
76553;BME280;65395;53.168;18.156;2024-03-23T04:23:15;100017.44;;;7.46;91.66
76553;BME280;65395;53.168;18.156;2024-03-23T04:25:42;100011.01;;;7.48;91.78
76553;BME280;65395;53.168;18.156;2024-03-23T04:28:09;100007.60;;;7.48;91.87
76553;BME280;65395;53.168;18.156;2024-03-23T04:30:36;100011.64;;;7.48;91.88
76553;BME280;65395;53.168;18.156;2024-03-23T04:33:03;100010.52;;;7.48;92.03
76553;BME280;65395;53.168;18.156;2024-03-23T04:35:31;100010.16;;;7.49;91.98
76553;BME280;65395;53.168;18.156;2024-03-23T04:37:58;100008.81;;;7.47;92.04
76553;BME280;65395;53.168;18.156;2024-03-23T04:40:26;100006.98;;;7.46;91.97
76553;BME280;65395;53.168;18.156;2024-03-23T04:42:53;100010.85;;;7.43;91.36
76553;BME280;65395;53.168;18.156;2024-03-23T04:45:20;100009.95;;;7.44;91.38
76553;BME280;65395;53.168;18.156;2024-03-23T04:47:49;100002.90;;;7.45;91.61
76553;BME280;65395;53.168;18.156;2024-03-23T04:50:16;100005.20;;;7.47;91.75
76553;BME280;65395;53.168;18.156;2024-03-23T04:52:43;100008.40;;;7.48;91.86
76553;BME280;65395;53.168;18.156;2024-03-23T04:55:10;100009.48;;;7.47;91.84
76553;BME280;65395;53.168;18.156;2024-03-23T04:57:38;100011.77;;;7.45;91.82
76553;BME280;65395;53.168;18.156;2024-03-23T05:00:06;100012.58;;;7.44;91.86
76553;BME280;65395;53.168;18.156;2024-03-23T05:02:44;100004.55;;;7.43;91.96
76553;BME280;65395;53.168;18.156;2024-03-23T05:05:11;100003.77;;;7.42;92.01
76553;BME280;65395;53.168;18.156;2024-03-23T05:07:38;100006.17;;;7.43;92.21
76553;BME280;65395;53.168;18.156;2024-03-23T05:10:06;100007.21;;;7.46;92.31
76553;BME280;65395;53.168;18.156;2024-03-23T05:12:37;99999.07;;;7.46;92.26
76553;BME280;65395;53.168;18.156;2024-03-23T05:15:05;99992.20;;;7.46;91.94
76553;BME280;65395;53.168;18.156;2024-03-23T05:17:32;99987.45;;;7.46;91.87
76553;BME280;65395;53.168;18.156;2024-03-23T05:19:59;99974.27;;;7.46;91.88
76553;BME280;65395;53.168;18.156;2024-03-23T05:22:26;99976.91;;;7.48;91.86
76553;BME280;65395;53.168;18.156;2024-03-23T05:24:53;99973.69;;;7.50;92.01
76553;BME280;65395;53.168;18.156;2024-03-23T05:27:20;99963.02;;;7.52;91.90
76553;BME280;65395;53.168;18.156;2024-03-23T05:29:47;99962.84;;;7.54;92.02
76553;BME280;65395;53.168;18.156;2024-03-23T05:32:14;99961.59;;;7.57;92.04
76553;BME280;65395;53.168;18.156;2024-03-23T05:34:41;99959.02;;;7.61;92.13
76553;BME280;65395;53.168;18.156;2024-03-23T05:37:07;99960.80;;;7.66;92.06
76553;BME280;65395;53.168;18.156;2024-03-23T05:39:34;99963.81;;;7.68;92.00
76553;BME280;65395;53.168;18.156;2024-03-23T05:42:01;99959.60;;;7.69;91.90
76553;BME280;65395;53.168;18.156;2024-03-23T05:44:27;99956.24;;;7.69;91.94
76553;BME280;65395;53.168;18.156;2024-03-23T05:46:54;99946.46;;;7.70;91.95
76553;BME280;65395;53.168;18.156;2024-03-23T05:49:21;99950.30;;;7.70;91.79
76553;BME280;65395;53.168;18.156;2024-03-23T05:51:48;99951.97;;;7.71;91.72
76553;BME280;65395;53.168;18.156;2024-03-23T05:54:15;99947.17;;;7.72;91.57
76553;BME280;65395;53.168;18.156;2024-03-23T05:56:42;99940.33;;;7.75;91.59
76553;BME280;65395;53.168;18.156;2024-03-23T05:59:08;99924.73;;;7.79;91.43
76553;BME280;65395;53.168;18.156;2024-03-23T06:01:35;99901.25;;;7.85;91.31
76553;BME280;65395;53.168;18.156;2024-03-23T06:04:02;99894.42;;;7.92;91.10
76553;BME280;65395;53.168;18.156;2024-03-23T06:06:29;99898.29;;;8.00;90.91
76553;BME280;65395;53.168;18.156;2024-03-23T06:08:56;99893.52;;;8.07;90.68
76553;BME280;65395;53.168;18.156;2024-03-23T06:11:23;99882.95;;;8.11;90.43
76553;BME280;65395;53.168;18.156;2024-03-23T06:13:50;99873.68;;;8.16;90.48
76553;BME280;65395;53.168;18.156;2024-03-23T06:16:17;99886.75;;;8.20;90.34
76553;BME280;65395;53.168;18.156;2024-03-23T06:18:50;99913.52;;;8.23;90.01
76553;BME280;65395;53.168;18.156;2024-03-23T06:21:17;99921.94;;;8.22;89.57
76553;BME280;65395;53.168;18.156;2024-03-23T06:23:44;99916.02;;;8.21;89.40
76553;BME280;65395;53.168;18.156;2024-03-23T06:26:18;99913.95;;;8.19;89.18
76553;BME280;65395;53.168;18.156;2024-03-23T06:28:46;99918.11;;;8.18;89.27
76553;BME280;65395;53.168;18.156;2024-03-23T06:31:12;99921.78;;;8.16;89.32
76553;BME280;65395;53.168;18.156;2024-03-23T06:33:39;99920.70;;;8.13;89.18
76553;BME280;65395;53.168;18.156;2024-03-23T06:36:10;99920.87;;;8.10;89.13
76553;BME280;65395;53.168;18.156;2024-03-23T06:38:37;99913.95;;;8.08;89.13
76553;BME280;65395;53.168;18.156;2024-03-23T06:41:05;99909.29;;;8.05;89.08
76553;BME280;65395;53.168;18.156;2024-03-23T06:43:32;99906.80;;;8.04;89.30
76553;BME280;65395;53.168;18.156;2024-03-23T06:45:58;99909.37;;;8.04;89.47
76553;BME280;65395;53.168;18.156;2024-03-23T06:48:25;99909.58;;;8.03;89.27
76553;BME280;65395;53.168;18.156;2024-03-23T06:50:56;99907.02;;;8.02;89.38
76553;BME280;65395;53.168;18.156;2024-03-23T06:53:24;99906.55;;;8.02;89.63
76553;BME280;65395;53.168;18.156;2024-03-23T06:55:52;99905.30;;;8.01;89.70
76553;BME280;65395;53.168;18.156;2024-03-23T06:58:20;99906.78;;;8.01;89.69
76553;BME280;65395;53.168;18.156;2024-03-23T07:00:47;99905.08;;;7.99;89.70
76553;BME280;65395;53.168;18.156;2024-03-23T07:03:15;99904.35;;;7.98;89.74
76553;BME280;65395;53.168;18.156;2024-03-23T07:05:42;99903.67;;;7.98;89.90
76553;BME280;65395;53.168;18.156;2024-03-23T07:08:08;99900.08;;;7.96;89.72
76553;BME280;65395;53.168;18.156;2024-03-23T07:10:39;99889.04;;;7.90;89.74
76553;BME280;65395;53.168;18.156;2024-03-23T07:13:06;99897.39;;;7.97;89.96
76553;BME280;65395;53.168;18.156;2024-03-23T07:15:33;99890.92;;;7.98;89.92
76553;BME280;65395;53.168;18.156;2024-03-23T07:18:00;99889.32;;;8.00;89.91
76553;BME280;65395;53.168;18.156;2024-03-23T07:20:27;99892.60;;;8.02;89.89
76553;BME280;65395;53.168;18.156;2024-03-23T07:22:55;99895.67;;;8.03;89.80
76553;BME280;65395;53.168;18.156;2024-03-23T07:25:22;99894.94;;;8.03;89.72
76553;BME280;65395;53.168;18.156;2024-03-23T07:27:49;99896.30;;;8.03;89.75
76553;BME280;65395;53.168;18.156;2024-03-23T07:30:16;99905.92;;;8.03;89.86
76553;BME280;65395;53.168;18.156;2024-03-23T07:32:44;99910.06;;;7.99;89.55
76553;BME280;65395;53.168;18.156;2024-03-23T07:35:11;99898.27;;;7.95;89.12
76553;BME280;65395;53.168;18.156;2024-03-23T07:37:38;99894.55;;;7.94;89.11
76553;BME280;65395;53.168;18.156;2024-03-23T07:40:05;99889.55;;;7.95;89.12
76553;BME280;65395;53.168;18.156;2024-03-23T07:42:32;99886.37;;;7.97;89.42
76553;BME280;65395;53.168;18.156;2024-03-23T07:44:59;99883.23;;;8.02;89.48
76553;BME280;65395;53.168;18.156;2024-03-23T07:47:26;99881.73;;;8.08;89.38
76553;BME280;65395;53.168;18.156;2024-03-23T07:49:53;99886.14;;;8.12;88.87
76553;BME280;65395;53.168;18.156;2024-03-23T07:52:19;99881.31;;;8.12;88.63
76553;BME280;65395;53.168;18.156;2024-03-23T07:54:47;99873.30;;;8.10;88.34
76553;BME280;65395;53.168;18.156;2024-03-23T07:57:13;99873.05;;;8.10;88.63
76553;BME280;65395;53.168;18.156;2024-03-23T07:59:40;99872.79;;;8.09;89.20
76553;BME280;65395;53.168;18.156;2024-03-23T08:02:07;99871.48;;;8.09;89.48
76553;BME280;65395;53.168;18.156;2024-03-23T08:04:34;99868.11;;;8.06;89.68
76553;BME280;65395;53.168;18.156;2024-03-23T08:07:00;99863.77;;;8.05;89.80
76553;BME280;65395;53.168;18.156;2024-03-23T08:09:27;99853.84;;;8.06;89.79
76553;BME280;65395;53.168;18.156;2024-03-23T08:11:54;99851.89;;;8.07;89.36
76553;BME280;65395;53.168;18.156;2024-03-23T08:14:21;99852.29;;;8.05;88.88
76553;BME280;65395;53.168;18.156;2024-03-23T08:16:48;99848.23;;;8.02;88.80
76553;BME280;65395;53.168;18.156;2024-03-23T08:19:16;99847.20;;;7.99;88.53
76553;BME280;65395;53.168;18.156;2024-03-23T08:21:43;99842.71;;;7.96;88.46
76553;BME280;65395;53.168;18.156;2024-03-23T08:24:09;99838.08;;;7.95;88.36
76553;BME280;65395;53.168;18.156;2024-03-23T08:26:36;99840.09;;;7.99;88.52
76553;BME280;65395;53.168;18.156;2024-03-23T08:29:04;99828.95;;;8.03;88.50
76553;BME280;65395;53.168;18.156;2024-03-23T08:31:31;99827.33;;;8.06;88.28
76553;BME280;65395;53.168;18.156;2024-03-23T08:33:58;99823.61;;;8.08;87.97
76553;BME280;65395;53.168;18.156;2024-03-23T08:36:24;99823.90;;;8.11;88.01
76553;BME280;65395;53.168;18.156;2024-03-23T08:38:51;99810.08;;;8.14;87.73
76553;BME280;65395;53.168;18.156;2024-03-23T08:41:20;99804.64;;;8.19;87.59
76553;BME280;65395;53.168;18.156;2024-03-23T08:43:47;99805.92;;;8.24;87.60
76553;BME280;65395;53.168;18.156;2024-03-23T08:46:15;99807.49;;;8.29;87.54
76553;BME280;65395;53.168;18.156;2024-03-23T08:48:44;99808.58;;;8.29;87.53
76553;BME280;65395;53.168;18.156;2024-03-23T08:51:13;99801.96;;;8.29;87.01
76553;BME280;65395;53.168;18.156;2024-03-23T08:53:41;99797.92;;;8.26;86.38
76553;BME280;65395;53.168;18.156;2024-03-23T08:56:09;99804.38;;;8.22;86.18
76553;BME280;65395;53.168;18.156;2024-03-23T08:58:37;99812.11;;;8.09;85.62
76553;BME280;65395;53.168;18.156;2024-03-23T09:01:12;99813.66;;;7.95;85.75
76553;BME280;65395;53.168;18.156;2024-03-23T09:03:40;99811.05;;;7.81;86.02
76553;BME280;65395;53.168;18.156;2024-03-23T09:06:08;99808.30;;;7.68;86.38
76553;BME280;65395;53.168;18.156;2024-03-23T09:08:36;99806.66;;;7.60;86.71
76553;BME280;65395;53.168;18.156;2024-03-23T09:11:05;99807.33;;;7.50;86.75
76553;BME280;65395;53.168;18.156;2024-03-23T09:13:34;99798.09;;;7.44;87.00
76553;BME280;65395;53.168;18.156;2024-03-23T09:16:01;99788.48;;;7.40;87.07
76553;BME280;65395;53.168;18.156;2024-03-23T09:18:31;99764.88;;;7.41;87.23
76553;BME280;65395;53.168;18.156;2024-03-23T09:20:58;99755.92;;;7.50;87.52
76553;BME280;65395;53.168;18.156;2024-03-23T09:23:25;99754.77;;;7.61;87.48
76553;BME280;65395;53.168;18.156;2024-03-23T09:25:52;99761.03;;;7.66;87.70
76553;BME280;65395;53.168;18.156;2024-03-23T09:28:18;99760.26;;;7.62;86.18
76553;BME280;65395;53.168;18.156;2024-03-23T09:30:45;99760.23;;;7.54;86.63
76553;BME280;65395;53.168;18.156;2024-03-23T09:33:13;99763.23;;;7.50;86.73
76553;BME280;65395;53.168;18.156;2024-03-23T09:35:41;99760.31;;;7.41;85.92
76553;BME280;65395;53.168;18.156;2024-03-23T09:38:08;99757.61;;;7.33;86.17
76553;BME280;65395;53.168;18.156;2024-03-23T09:40:43;99751.57;;;7.27;86.44
76553;BME280;65395;53.168;18.156;2024-03-23T09:43:11;99746.35;;;7.24;86.71
76553;BME280;65395;53.168;18.156;2024-03-23T09:45:40;99741.51;;;7.22;86.64
76553;BME280;65395;53.168;18.156;2024-03-23T09:48:09;99734.77;;;7.21;86.81
76553;BME280;65395;53.168;18.156;2024-03-23T09:50:38;99725.27;;;7.25;87.23
76553;BME280;65395;53.168;18.156;2024-03-23T09:53:09;99727.05;;;7.30;87.16
76553;BME280;65395;53.168;18.156;2024-03-23T09:55:36;99732.67;;;7.31;86.89
76553;BME280;65395;53.168;18.156;2024-03-23T09:58:03;99726.41;;;7.34;86.26
76553;BME280;65395;53.168;18.156;2024-03-23T10:00:32;99720.82;;;7.32;85.13
76553;BME280;65395;53.168;18.156;2024-03-23T10:03:00;99716.64;;;7.28;85.22
76553;BME280;65395;53.168;18.156;2024-03-23T10:05:29;99722.98;;;7.24;85.00
76553;BME280;65395;53.168;18.156;2024-03-23T10:07:58;99720.16;;;7.17;84.92
76553;BME280;65395;53.168;18.156;2024-03-23T10:10:25;99718.72;;;7.04;84.78
76553;BME280;65395;53.168;18.156;2024-03-23T10:12:52;99728.14;;;6.90;84.84
76553;BME280;65395;53.168;18.156;2024-03-23T10:15:22;99737.08;;;6.79;85.37
76553;BME280;65395;53.168;18.156;2024-03-23T10:17:50;99729.77;;;6.72;85.66
76553;BME280;65395;53.168;18.156;2024-03-23T10:20:24;99719.11;;;6.75;85.86
76553;BME280;65395;53.168;18.156;2024-03-23T10:22:51;99720.77;;;6.80;84.66
76553;BME280;65395;53.168;18.156;2024-03-23T10:25:22;99716.61;;;6.78;83.32
76553;BME280;65395;53.168;18.156;2024-03-23T10:27:59;99717.03;;;6.82;83.78
76553;BME280;65395;53.168;18.156;2024-03-23T10:30:27;99718.40;;;6.89;83.53
76553;BME280;65395;53.168;18.156;2024-03-23T10:33:07;99709.81;;;6.96;83.08
76553;BME280;65395;53.168;18.156;2024-03-23T10:35:34;99707.44;;;7.01;83.00
76553;BME280;65395;53.168;18.156;2024-03-23T10:38:04;99699.60;;;7.04;82.99
76553;BME280;65395;53.168;18.156;2024-03-23T10:40:34;99699.06;;;7.11;83.54
76553;BME280;65395;53.168;18.156;2024-03-23T10:43:03;99696.65;;;7.22;83.67
76553;BME280;65395;53.168;18.156;2024-03-23T10:45:30;99693.48;;;7.31;82.56
76553;BME280;65395;53.168;18.156;2024-03-23T10:47:57;99693.39;;;7.32;82.18
76553;BME280;65395;53.168;18.156;2024-03-23T10:50:24;99690.09;;;7.32;82.39
76553;BME280;65395;53.168;18.156;2024-03-23T10:52:53;99688.34;;;7.34;82.79
76553;BME280;65395;53.168;18.156;2024-03-23T10:55:22;99679.55;;;7.39;82.84
76553;BME280;65395;53.168;18.156;2024-03-23T10:57:54;99673.48;;;7.41;82.85
76553;BME280;65395;53.168;18.156;2024-03-23T11:00:22;99671.92;;;7.46;82.53
76553;BME280;65395;53.168;18.156;2024-03-23T11:02:49;99669.88;;;7.50;82.18
76553;BME280;65395;53.168;18.156;2024-03-23T11:05:28;99649.30;;;7.54;82.03
76553;BME280;65395;53.168;18.156;2024-03-23T11:07:55;99649.76;;;7.61;82.11
76553;BME280;65395;53.168;18.156;2024-03-23T11:10:30;99643.09;;;7.67;82.08
76553;BME280;65395;53.168;18.156;2024-03-23T11:12:57;99636.31;;;7.74;80.90
76553;BME280;65395;53.168;18.156;2024-03-23T11:15:24;99632.72;;;7.75;80.77
76553;BME280;65395;53.168;18.156;2024-03-23T11:18:02;99633.23;;;7.78;80.78
76553;BME280;65395;53.168;18.156;2024-03-23T11:20:32;99622.98;;;7.81;80.58
76553;BME280;65395;53.168;18.156;2024-03-23T11:22:59;99611.02;;;7.82;80.74
76553;BME280;65395;53.168;18.156;2024-03-23T11:25:27;99603.59;;;7.87;81.14
76553;BME280;65395;53.168;18.156;2024-03-23T11:27:57;99610.71;;;7.92;80.67
76553;BME280;65395;53.168;18.156;2024-03-23T11:30:27;99611.38;;;7.96;80.87
76553;BME280;65395;53.168;18.156;2024-03-23T11:32:57;99606.44;;;8.02;81.10
76553;BME280;65395;53.168;18.156;2024-03-23T11:35:30;99606.08;;;8.06;79.98
76553;BME280;65395;53.168;18.156;2024-03-23T11:38:04;99605.63;;;8.10;80.05
76553;BME280;65395;53.168;18.156;2024-03-23T11:40:32;99604.70;;;8.15;80.47
76553;BME280;65395;53.168;18.156;2024-03-23T11:43:01;99606.34;;;8.16;79.86
76553;BME280;65395;53.168;18.156;2024-03-23T11:45:29;99595.69;;;8.13;80.17
76553;BME280;65395;53.168;18.156;2024-03-23T11:48:05;99596.46;;;8.17;80.45
76553;BME280;65395;53.168;18.156;2024-03-23T11:50:33;99594.89;;;8.16;80.01
76553;BME280;65395;53.168;18.156;2024-03-23T11:53:13;99591.52;;;8.10;79.97
76553;BME280;65395;53.168;18.156;2024-03-23T11:55:46;99591.24;;;8.05;80.09
76553;BME280;65395;53.168;18.156;2024-03-23T11:58:14;99583.73;;;8.00;79.83
76553;BME280;65395;53.168;18.156;2024-03-23T12:00:42;99579.48;;;7.93;79.84
76553;BME280;65395;53.168;18.156;2024-03-23T12:03:09;99572.41;;;7.81;80.21
76553;BME280;65395;53.168;18.156;2024-03-23T12:05:37;99576.13;;;7.79;80.31
76553;BME280;65395;53.168;18.156;2024-03-23T12:08:15;99564.23;;;7.68;80.65
76553;BME280;65395;53.168;18.156;2024-03-23T12:10:44;99558.98;;;7.70;80.94
76553;BME280;65395;53.168;18.156;2024-03-23T12:13:12;99556.42;;;7.67;80.79
76553;BME280;65395;53.168;18.156;2024-03-23T12:15:41;99553.17;;;7.64;81.18
76553;BME280;65395;53.168;18.156;2024-03-23T12:18:09;99541.80;;;7.61;81.37
76553;BME280;65395;53.168;18.156;2024-03-23T12:20:38;99538.16;;;7.62;81.81
76553;BME280;65395;53.168;18.156;2024-03-23T12:23:10;99536.52;;;7.63;81.90
76553;BME280;65395;53.168;18.156;2024-03-23T12:25:39;99529.71;;;7.65;82.15
76553;BME280;65395;53.168;18.156;2024-03-23T12:28:07;99526.77;;;7.66;82.27
76553;BME280;65395;53.168;18.156;2024-03-23T12:30:35;99526.28;;;7.64;82.38
76553;BME280;65395;53.168;18.156;2024-03-23T12:33:02;99533.98;;;7.59;82.22
76553;BME280;65395;53.168;18.156;2024-03-23T12:35:29;99547.52;;;7.53;82.33
76553;BME280;65395;53.168;18.156;2024-03-23T12:37:56;99550.47;;;7.47;82.39
76553;BME280;65395;53.168;18.156;2024-03-23T12:40:23;99549.67;;;7.42;82.54
76553;BME280;65395;53.168;18.156;2024-03-23T12:42:50;99539.81;;;7.36;82.76
76553;BME280;65395;53.168;18.156;2024-03-23T12:45:17;99522.87;;;7.28;82.88
76553;BME280;65395;53.168;18.156;2024-03-23T12:47:44;99495.70;;;7.23;83.07
76553;BME280;65395;53.168;18.156;2024-03-23T12:50:11;99509.57;;;7.19;82.96
76553;BME280;65395;53.168;18.156;2024-03-23T12:52:37;99529.33;;;7.10;82.78
76553;BME280;65395;53.168;18.156;2024-03-23T12:55:05;99528.23;;;6.97;82.56
76553;BME280;65395;53.168;18.156;2024-03-23T12:57:32;99516.75;;;6.82;82.78
76553;BME280;65395;53.168;18.156;2024-03-23T12:59:59;99507.54;;;6.73;83.30
76553;BME280;65395;53.168;18.156;2024-03-23T13:02:27;99500.81;;;6.68;83.75
76553;BME280;65395;53.168;18.156;2024-03-23T13:04:55;99481.05;;;6.62;84.02
76553;BME280;65395;53.168;18.156;2024-03-23T13:07:22;99472.65;;;6.58;84.27
76553;BME280;65395;53.168;18.156;2024-03-23T13:09:50;99462.52;;;6.53;84.19
76553;BME280;65395;53.168;18.156;2024-03-23T13:12:19;99453.66;;;6.50;84.21
76553;BME280;65395;53.168;18.156;2024-03-23T13:14:46;99436.75;;;6.49;84.42
76553;BME280;65395;53.168;18.156;2024-03-23T13:17:13;99418.13;;;6.49;84.11
76553;BME280;65395;53.168;18.156;2024-03-23T13:19:41;99420.23;;;6.48;83.74
76553;BME280;65395;53.168;18.156;2024-03-23T13:22:08;99433.38;;;6.45;83.51
76553;BME280;65395;53.168;18.156;2024-03-23T13:24:38;99436.60;;;6.40;83.17
76553;BME280;65395;53.168;18.156;2024-03-23T13:27:05;99444.08;;;6.35;83.17
76553;BME280;65395;53.168;18.156;2024-03-23T13:29:34;99454.36;;;6.29;82.96
76553;BME280;65395;53.168;18.156;2024-03-23T13:32:01;99467.94;;;6.21;82.77
76553;BME280;65395;53.168;18.156;2024-03-23T13:34:28;99471.56;;;6.13;82.89
76553;BME280;65395;53.168;18.156;2024-03-23T13:36:56;99466.52;;;6.06;83.10
76553;BME280;65395;53.168;18.156;2024-03-23T13:39:25;99468.67;;;6.03;83.60
76553;BME280;65395;53.168;18.156;2024-03-23T13:41:54;99475.48;;;5.99;83.79
76553;BME280;65395;53.168;18.156;2024-03-23T13:44:23;99470.92;;;5.92;83.77
76553;BME280;65395;53.168;18.156;2024-03-23T13:46:50;99465.52;;;5.90;83.62
76553;BME280;65395;53.168;18.156;2024-03-23T13:49:27;99471.80;;;5.88;83.77
76553;BME280;65395;53.168;18.156;2024-03-23T13:51:55;99473.62;;;5.85;84.08